Time;durP1;ratioP1;P1;durP2;ratioP2;P2;SDS_P1;SDS_P2;PMS_P1;PMS_P2;Temp;Humidity;BMP_temperature;BMP_pressure;BME280_temperature;BME280_humidity;BME280_pressure;Samples;Min_cycle;Max_cycle;Signal;HPM_P1;HPM_P2
2023/05/28 00:02:03;;;;;;;14.02;4.07;;;11.10;99.90;;;;;;5052639;28;20479;-78
2023/05/28 00:04:28;;;;;;;16.02;3.80;;;11.10;99.90;;;;;;5068787;28;20301;-77
2023/05/28 00:06:55;;;;;;;7.03;2.78;;;11.10;99.90;;;;;;5069797;28;20044;-77
2023/05/28 00:09:21;;;;;;;13.98;4.68;;;11.20;99.90;;;;;;5068368;28;20062;-77
2023/05/28 00:11:47;;;;;;;11.38;2.85;;;11.10;99.90;;;;;;5069144;28;20090;-77
2023/05/28 00:14:13;;;;;;;9.80;2.85;;;11.50;99.90;;;;;;5051541;28;20069;-77
2023/05/28 00:16:40;;;;;;;10.27;2.55;;;11.10;99.90;;;;;;5052376;28;20044;-77
2023/05/28 00:19:07;;;;;;;9.10;3.15;;;11.10;99.90;;;;;;5052842;28;20063;-78
2023/05/28 00:21:34;;;;;;;15.43;3.58;;;11.10;99.90;;;;;;5068459;28;20040;-78
2023/05/28 00:23:59;;;;;;;7.63;2.88;;;11.10;99.90;;;;;;5052234;28;20047;-78
2023/05/28 00:26:26;;;;;;;10.10;3.35;;;11.10;99.90;;;;;;5051412;28;20044;-77
2023/05/28 00:28:52;;;;;;;19.23;3.28;;;11.10;99.90;;;;;;5069556;28;20067;-77
2023/05/28 00:31:18;;;;;;;10.27;3.53;;;11.10;99.90;;;;;;5068379;28;20149;-77
2023/05/28 00:33:43;;;;;;;7.43;3.05;;;11.60;99.90;;;;;;5068539;28;20108;-77
2023/05/28 00:36:10;;;;;;;12.50;3.25;;;11.10;99.90;;;;;;5051782;28;20089;-77
2023/05/28 00:38:37;;;;;;;9.95;3.08;;;11.20;99.90;;;;;;5051373;28;20044;-77
2023/05/28 00:41:02;;;;;;;14.05;4.00;;;11.20;99.90;;;;;;5052742;28;20048;-77
2023/05/28 00:43:28;;;;;;;8.38;3.10;;;11.20;99.90;;;;;;5035056;28;20059;-77
2023/05/28 00:45:59;;;;;;;17.05;4.03;;;11.50;99.90;;;;;;5069014;28;20479;-77
2023/05/28 00:48:25;;;;;;;12.60;3.63;;;11.20;99.90;;;;;;5051131;28;20043;-76
2023/05/28 00:50:51;;;;;;;17.35;3.60;;;11.20;99.90;;;;;;5068515;28;20052;-78
2023/05/28 00:53:17;;;;;;;12.38;2.92;;;11.20;99.90;;;;;;5051578;28;20583;-79
2023/05/28 00:55:44;;;;;;;8.55;3.13;;;11.20;99.90;;;;;;5067724;28;20052;-78
2023/05/28 00:58:10;;;;;;;8.85;2.83;;;11.20;99.90;;;;;;5035355;28;20040;-79
2023/05/28 01:00:37;;;;;;;11.65;3.05;;;11.30;99.90;;;;;;5067419;28;20101;-78
2023/05/28 01:03:04;;;;;;;14.40;3.67;;;11.10;99.90;;;;;;5068944;28;20356;-79
2023/05/28 01:05:34;;;;;;;9.77;3.83;;;11.90;99.90;;;;;;5067333;28;20073;-79
2023/05/28 01:08:06;;;;;;;12.25;3.08;;;11.10;99.90;;;;;;5068410;28;20418;-77
2023/05/28 01:10:33;;;;;;;8.77;2.15;;;11.10;99.90;;;;;;5067032;28;20055;-79
2023/05/28 01:13:01;;;;;;;12.00;3.60;;;11.20;99.90;;;;;;5067260;28;20126;-76
2023/05/28 01:15:27;;;;;;;11.27;4.15;;;11.20;99.90;;;;;;5068031;28;20135;-77
2023/05/28 01:17:57;;;;;;;11.77;3.97;;;11.00;99.90;;;;;;5050460;28;20393;-76
2023/05/28 01:20:25;;;;;;;12.75;3.47;;;11.00;99.90;;;;;;5067713;28;20044;-77
2023/05/28 01:22:55;;;;;;;6.63;2.60;;;11.00;99.90;;;;;;5050717;28;20052;-77
2023/05/28 01:25:22;;;;;;;9.05;3.03;;;11.00;99.90;;;;;;5050779;28;20052;-77
2023/05/28 01:27:48;;;;;;;11.07;3.47;;;11.00;99.90;;;;;;5050707;28;20055;-77
2023/05/28 01:30:14;;;;;;;10.07;3.65;;;11.00;99.90;;;;;;5067154;28;20052;-77
2023/05/28 01:32:40;;;;;;;7.78;3.38;;;10.90;99.90;;;;;;5051115;28;20135;-78
2023/05/28 01:35:08;;;;;;;12.73;3.45;;;11.00;99.90;;;;;;5066523;28;20036;-77
2023/05/28 01:37:39;;;;;;;9.27;3.85;;;11.00;99.90;;;;;;5067525;28;20040;-77
2023/05/28 01:40:06;;;;;;;13.98;3.90;;;11.00;99.90;;;;;;5050407;28;20044;-77
2023/05/28 01:42:34;;;;;;;18.00;3.83;;;12.10;99.90;;;;;;5050888;28;20391;-77
2023/05/28 01:45:01;;;;;;;11.57;4.18;;;11.00;99.90;;;;;;5067726;28;20044;-77
2023/05/28 01:47:29;;;;;;;8.45;3.40;;;11.20;99.90;;;;;;5049907;28;20063;-77
2023/05/28 01:49:55;;;;;;;10.02;4.15;;;11.00;99.90;;;;;;5067343;28;20062;-77
2023/05/28 01:52:21;;;;;;;12.52;4.57;;;11.00;99.90;;;;;;5049936;28;20512;-77
2023/05/28 01:54:47;;;;;;;12.00;3.80;;;11.00;99.90;;;;;;5066816;28;20056;-77
2023/05/28 01:57:13;;;;;;;7.43;3.55;;;11.00;99.90;;;;;;5066941;28;20449;-78
2023/05/28 01:59:38;;;;;;;9.63;3.50;;;11.00;99.90;;;;;;5066768;28;20461;-77
2023/05/28 02:02:05;;;;;;;8.20;3.00;;;11.60;99.90;;;;;;5033751;28;20139;-77
2023/05/28 02:04:31;;;;;;;8.20;3.92;;;11.00;99.90;;;;;;5066396;28;20052;-77
2023/05/28 02:06:58;;;;;;;16.88;4.32;;;11.00;99.90;;;;;;5067563;28;20048;-77
2023/05/28 02:09:23;;;;;;;10.55;4.10;;;11.00;99.90;;;;;;5066118;28;20076;-78
2023/05/28 02:11:49;;;;;;;15.05;3.47;;;11.00;99.90;;;;;;5049838;28;20083;-77
2023/05/28 02:14:15;;;;;;;12.75;4.00;;;11.00;99.90;;;;;;5066194;28;20048;-77
2023/05/28 02:16:48;;;;;;;16.83;3.92;;;11.00;99.90;;;;;;5033534;28;20082;-77
2023/05/28 02:19:14;;;;;;;6.82;2.33;;;11.00;99.90;;;;;;5050496;28;20044;-78
2023/05/28 02:21:40;;;;;;;9.57;4.10;;;11.00;99.90;;;;;;5048648;28;20075;-78
2023/05/28 02:24:06;;;;;;;8.77;3.95;;;11.00;99.90;;;;;;5066994;28;20094;-78
2023/05/28 02:26:32;;;;;;;9.43;3.60;;;10.90;99.90;;;;;;5066993;28;20570;-78
2023/05/28 02:28:57;;;;;;;13.48;4.70;;;10.90;99.90;;;;;;5066610;28;20046;-77
2023/05/28 02:31:23;;;;;;;9.02;3.60;;;11.10;99.90;;;;;;5050091;28;20074;-78
2023/05/28 02:33:49;;;;;;;11.05;3.63;;;10.90;99.90;;;;;;5066495;28;20340;-78
2023/05/28 02:36:15;;;;;;;12.82;4.93;;;11.50;99.90;;;;;;5066639;28;20044;-78
2023/05/28 02:38:42;;;;;;;12.90;3.58;;;10.80;99.90;;;;;;5049502;28;20044;-78
2023/05/28 02:41:08;;;;;;;14.40;3.25;;;10.90;99.90;;;;;;5050367;28;20040;-78
2023/05/28 02:43:34;;;;;;;14.70;4.10;;;10.90;99.90;;;;;;5049828;28;20045;-77
2023/05/28 02:46:00;;;;;;;6.43;3.33;;;10.80;99.90;;;;;;5066691;28;20130;-78
2023/05/28 02:48:26;;;;;;;11.80;3.95;;;10.80;99.90;;;;;;5066339;28;20115;-78
2023/05/28 02:50:52;;;;;;;11.98;4.50;;;10.80;99.90;;;;;;5066866;28;20373;-77
2023/05/28 02:53:22;;;;;;;11.68;4.70;;;11.30;99.90;;;;;;5066404;28;20055;-77
2023/05/28 02:55:48;;;;;;;10.68;3.47;;;10.80;99.90;;;;;;5032645;28;20165;-77
2023/05/28 02:58:14;;;;;;;11.35;4.50;;;10.80;99.90;;;;;;5067100;28;20391;-78
2023/05/28 03:00:41;;;;;;;7.32;3.60;;;10.70;99.90;;;;;;5065891;28;20090;-78
2023/05/28 03:03:07;;;;;;;13.70;3.67;;;10.80;99.90;;;;;;5049708;28;20118;-78
2023/05/28 03:05:33;;;;;;;9.02;4.03;;;10.70;99.90;;;;;;5032721;28;20055;-78
2023/05/28 03:07:59;;;;;;;12.68;3.85;;;10.70;99.90;;;;;;5050193;28;20257;-78
2023/05/28 03:10:25;;;;;;;11.07;4.93;;;10.70;99.90;;;;;;5049650;28;20123;-78
2023/05/28 03:12:50;;;;;;;11.85;4.13;;;10.70;99.90;;;;;;5066091;28;20075;-78
2023/05/28 03:15:16;;;;;;;8.55;3.20;;;10.70;99.90;;;;;;5050150;28;20082;-78
2023/05/28 03:17:42;;;;;;;7.00;3.50;;;10.90;99.90;;;;;;5065602;28;20434;-78
2023/05/28 03:20:10;;;;;;;9.70;3.40;;;10.70;99.90;;;;;;5050272;28;20044;-78
2023/05/28 03:22:40;;;;;;;9.32;3.20;;;10.70;99.90;;;;;;5066048;28;20055;-78
2023/05/28 03:25:07;;;;;;;16.83;4.38;;;11.00;99.90;;;;;;5065807;28;20044;-78
2023/05/28 03:27:32;;;;;;;11.02;3.30;;;10.60;99.90;;;;;;5049534;28;20101;-78
2023/05/28 03:29:58;;;;;;;10.20;3.30;;;10.60;99.90;;;;;;5065934;28;20040;-77
2023/05/28 03:32:24;;;;;;;11.13;3.88;;;11.30;99.90;;;;;;5050096;28;20036;-77
2023/05/28 03:34:50;;;;;;;9.93;3.25;;;10.60;99.90;;;;;;5052428;28;20040;-78
2023/05/28 03:37:16;;;;;;;11.88;3.92;;;11.40;99.90;;;;;;5052875;28;20050;-78
2023/05/28 03:39:43;;;;;;;8.30;3.17;;;10.50;99.90;;;;;;5035518;28;20105;-78
2023/05/28 03:42:09;;;;;;;6.95;3.28;;;10.60;99.90;;;;;;5068749;28;20052;-77
2023/05/28 03:44:34;;;;;;;8.73;4.50;;;10.50;99.90;;;;;;5052868;28;20036;-78
2023/05/28 03:47:01;;;;;;;13.52;3.78;;;10.60;99.90;;;;;;5069009;28;20040;-78
2023/05/28 03:49:27;;;;;;;9.68;3.40;;;10.60;99.90;;;;;;5069237;28;20055;-78
2023/05/28 03:51:53;;;;;;;8.48;3.50;;;10.50;99.90;;;;;;5068551;28;20074;-78
2023/05/28 03:54:18;;;;;;;8.57;3.03;;;10.60;99.90;;;;;;5035542;28;20087;-78
2023/05/28 03:56:44;;;;;;;10.93;3.17;;;10.60;99.90;;;;;;5068993;28;20075;-78
2023/05/28 03:59:10;;;;;;;12.50;3.72;;;10.60;99.90;;;;;;5052331;28;20036;-77
2023/05/28 04:01:36;;;;;;;11.43;3.88;;;10.60;99.90;;;;;;5069401;28;20059;-77
2023/05/28 04:04:03;;;;;;;14.90;3.63;;;10.60;99.90;;;;;;5068677;28;20043;-77
2023/05/28 04:06:30;;;;;;;9.00;3.50;;;10.60;99.90;;;;;;5068894;28;20032;-77
2023/05/28 04:08:56;;;;;;;9.63;3.60;;;11.60;99.90;;;;;;5086522;28;20115;-77
2023/05/28 04:11:24;;;;;;;10.45;3.75;;;10.60;99.90;;;;;;5068856;28;20155;-77
2023/05/28 04:13:51;;;;;;;16.60;3.85;;;10.60;99.90;;;;;;5052469;28;20376;-77
2023/05/28 04:16:17;;;;;;;12.52;3.20;;;10.70;99.90;;;;;;5051898;28;20036;-77
2023/05/28 04:18:42;;;;;;;8.68;3.30;;;10.70;99.90;;;;;;5086633;28;20050;-77
2023/05/28 04:21:08;;;;;;;11.93;3.58;;;10.70;99.90;;;;;;5068348;28;20226;-77
2023/05/28 04:23:34;;;;;;;9.70;3.17;;;10.80;99.90;;;;;;5068560;28;20040;-77
2023/05/28 04:26:00;;;;;;;12.15;3.33;;;10.80;99.90;;;;;;5068621;28;20087;-77
2023/05/28 04:28:27;;;;;;;10.15;3.20;;;10.80;99.90;;;;;;5068762;28;20048;-77
2023/05/28 04:30:54;;;;;;;11.05;3.40;;;10.90;99.90;;;;;;5087101;28;20402;-77
2023/05/28 04:33:23;;;;;;;11.20;3.03;;;11.10;99.90;;;;;;5068813;28;20146;-77
2023/05/28 04:35:50;;;;;;;10.82;3.15;;;11.40;99.90;;;;;;5068611;28;20044;-77
2023/05/28 04:38:17;;;;;;;12.88;3.55;;;11.30;99.90;;;;;;5052306;28;20548;-77
2023/05/28 04:40:42;;;;;;;14.60;6.43;;;11.10;99.90;;;;;;5068891;28;20040;-77
2023/05/28 04:43:08;;;;;;;10.90;4.60;;;11.10;99.90;;;;;;5068020;28;20123;-77
2023/05/28 04:45:34;;;;;;;11.02;3.47;;;11.10;99.90;;;;;;5034969;28;20063;-77
2023/05/28 04:48:01;;;;;;;7.32;2.90;;;11.20;99.90;;;;;;5018721;28;20040;-77
2023/05/28 04:50:27;;;;;;;8.38;3.22;;;11.20;99.90;;;;;;5068511;28;20047;-77
2023/05/28 04:52:53;;;;;;;10.18;3.40;;;11.30;99.90;;;;;;5051225;28;20080;-79
2023/05/28 04:55:18;;;;;;;11.18;3.47;;;11.30;99.90;;;;;;5067962;28;20072;-78
2023/05/28 04:57:44;;;;;;;9.93;3.30;;;11.30;99.90;;;;;;5052449;28;20043;-76
2023/05/28 05:00:13;;;;;;;5.55;2.83;;;10.70;99.90;;;;;;5067630;28;20104;-76
2023/05/28 05:02:43;;;;;;;7.55;3.60;;;11.40;99.90;;;;;;5051659;28;20456;-76
2023/05/28 05:05:09;;;;;;;11.68;3.10;;;11.40;99.90;;;;;;5067639;28;20039;-76
2023/05/28 05:07:38;;;;;;;10.30;3.05;;;11.40;99.90;;;;;;5051173;28;20043;-77
2023/05/28 05:10:08;;;;;;;7.68;2.53;;;11.40;99.90;;;;;;5051483;28;20104;-77
2023/05/28 05:12:35;;;;;;;9.80;3.15;;;11.40;99.90;;;;;;5051175;28;20123;-76
2023/05/28 05:15:01;;;;;;;13.38;3.50;;;11.50;99.90;;;;;;5068468;28;20039;-77
2023/05/28 05:17:27;;;;;;;11.70;3.50;;;11.50;99.90;;;;;;5066668;28;20508;-79
2023/05/28 05:19:53;;;;;;;8.88;2.85;;;11.60;99.90;;;;;;5051164;28;20076;-78
2023/05/28 05:22:18;;;;;;;8.07;3.40;;;11.70;99.90;;;;;;5051045;28;20235;-79
2023/05/28 05:24:48;;;;;;;11.32;2.67;;;11.80;99.90;;;;;;5050342;28;20052;-78
2023/05/28 05:27:14;;;;;;;11.88;3.22;;;11.90;99.90;;;;;;5067496;28;20043;-78
2023/05/28 05:29:40;;;;;;;12.10;3.55;;;12.00;99.90;;;;;;5034191;28;20044;-78
2023/05/28 05:32:06;;;;;;;7.93;2.58;;;12.20;99.90;;;;;;5067286;28;20186;-78
2023/05/28 05:34:32;;;;;;;11.38;2.78;;;12.50;99.90;;;;;;5050156;28;20051;-79
2023/05/28 05:36:58;;;;;;;6.13;2.28;;;12.40;99.90;;;;;;5050955;28;20051;-78
2023/05/28 05:39:24;;;;;;;11.25;3.20;;;12.60;99.90;;;;;;5067105;28;20036;-78
2023/05/28 05:41:50;;;;;;;9.63;3.17;;;12.70;99.90;;;;;;5050338;28;20048;-78
2023/05/28 05:44:16;;;;;;;11.00;2.85;;;12.90;99.90;;;;;;5050533;28;20070;-76
2023/05/28 05:46:42;;;;;;;11.23;2.97;;;13.00;99.90;;;;;;5049801;28;20040;-76
2023/05/28 05:49:09;;;;;;;9.18;3.22;;;13.10;99.90;;;;;;5051122;28;20047;-78
2023/05/28 05:51:35;;;;;;;14.05;3.72;;;13.20;99.90;;;;;;5066135;28;20555;-78
2023/05/28 05:54:02;;;;;;;11.25;3.80;;;13.30;99.90;;;;;;5033274;28;20056;-77
2023/05/28 05:56:28;;;;;;;11.70;3.28;;;13.40;99.90;;;;;;5066504;28;20044;-75
2023/05/28 05:58:54;;;;;;;8.02;3.10;;;13.50;99.90;;;;;;5049739;28;20048;-77
2023/05/28 06:01:21;;;;;;;7.30;3.25;;;13.60;99.90;;;;;;5066894;28;20036;-76
2023/05/28 06:03:47;;;;;;;8.02;2.65;;;13.70;99.90;;;;;;5050262;28;20081;-77
2023/05/28 06:06:13;;;;;;;13.13;3.40;;;13.80;99.90;;;;;;5034431;28;20528;-78
2023/05/28 06:08:39;;;;;;;8.63;3.08;;;13.90;99.90;;;;;;5049966;28;20399;-80
2023/05/28 06:11:05;;;;;;;8.52;2.65;;;13.90;99.90;;;;;;5050267;28;20415;-81
2023/05/28 06:13:31;;;;;;;11.18;2.72;;;14.00;99.90;;;;;;5033218;28;20043;-82
2023/05/28 06:15:57;;;;;;;10.50;4.03;;;14.00;99.90;;;;;;5066728;28;20140;-82
2023/05/28 06:18:23;;;;;;;11.70;3.63;;;14.10;99.90;;;;;;5050024;28;20040;-82
2023/05/28 06:20:49;;;;;;;8.32;2.58;;;14.20;99.90;;;;;;5032640;28;20051;-82
2023/05/28 06:23:16;;;;;;;10.27;3.20;;;14.30;99.90;;;;;;5050845;28;20036;-82
2023/05/28 06:25:43;;;;;;;11.20;2.35;;;14.40;99.90;;;;;;5032796;28;20367;-82
2023/05/28 06:28:10;;;;;;;9.63;2.78;;;14.40;99.90;;;;;;5048257;28;20067;-79
2023/05/28 06:30:35;;;;;;;10.00;3.53;;;14.40;99.90;;;;;;5065830;28;20138;-78
2023/05/28 06:33:01;;;;;;;7.07;2.15;;;14.50;99.90;;;;;;5032999;28;20131;-78
2023/05/28 06:35:27;;;;;;;7.95;2.55;;;14.60;99.90;;;;;;5066840;28;20036;-79
2023/05/28 06:37:53;;;;;;;10.05;3.13;;;14.60;99.90;;;;;;5049087;28;20051;-79
2023/05/28 06:40:19;;;;;;;9.18;2.55;;;14.70;99.90;;;;;;5067020;28;20044;-78
2023/05/28 06:42:45;;;;;;;6.47;2.53;;;14.80;99.90;;;;;;5066046;28;20594;-79
2023/05/28 06:45:11;;;;;;;9.57;2.50;;;14.90;99.90;;;;;;5066500;28;20499;-77
2023/05/28 06:47:37;;;;;;;6.75;2.28;;;15.00;99.90;;;;;;5065850;28;20052;-79
2023/05/28 06:50:03;;;;;;;5.80;1.70;;;15.10;99.90;;;;;;5066488;28;20401;-77
2023/05/28 06:52:29;;;;;;;9.05;2.28;;;15.20;99.90;;;;;;5049866;28;20088;-78
2023/05/28 06:54:55;;;;;;;9.52;2.13;;;15.20;99.90;;;;;;5065548;28;20052;-79
2023/05/28 06:57:21;;;;;;;14.95;2.78;;;15.30;99.90;;;;;;5050564;28;20475;-78
2023/05/28 06:59:47;;;;;;;9.57;2.10;;;15.30;99.90;;;;;;5049498;28;20075;-78
2023/05/28 07:02:12;;;;;;;7.82;2.00;;;15.30;99.90;;;;;;5050267;28;20457;-79
2023/05/28 07:04:38;;;;;;;8.73;2.83;;;15.40;99.90;;;;;;5032529;28;20044;-78
2023/05/28 07:07:05;;;;;;;7.70;2.28;;;14.30;99.90;;;;;;5049046;28;20032;-78
2023/05/28 07:09:31;;;;;;;7.03;2.67;;;15.60;99.90;;;;;;5053340;28;20126;-78
2023/05/28 07:11:56;;;;;;;9.52;3.20;;;15.60;99.90;;;;;;5069137;28;20423;-78
2023/05/28 07:14:23;;;;;;;6.70;2.55;;;15.70;99.90;;;;;;5053256;28;20036;-78
2023/05/28 07:16:48;;;;;;;7.03;1.90;;;15.80;99.90;;;;;;5069058;28;20048;-79
2023/05/28 07:19:14;;;;;;;4.30;1.83;;;15.90;99.90;;;;;;5037419;28;20193;-82
2023/05/28 07:21:40;;;;;;;5.50;1.85;;;15.90;99.90;;;;;;5053257;28;20099;-81
2023/05/28 07:24:06;;;;;;;6.45;2.28;;;16.10;99.90;;;;;;5053264;28;20071;-80
2023/05/28 07:26:35;;;;;;;5.80;2.17;;;16.10;99.90;;;;;;5070365;28;20148;-83
2023/05/28 07:29:01;;;;;;;3.72;1.70;;;16.20;99.90;;;;;;5035772;28;20040;-81
2023/05/28 07:31:28;;;;;;;4.15;1.50;;;16.30;99.90;;;;;;5053832;28;20055;-83
2023/05/28 07:33:53;;;;;;;4.97;1.63;;;16.30;99.90;;;;;;5035865;28;20033;-82
2023/05/28 07:36:19;;;;;;;5.03;1.90;;;16.40;99.90;;;;;;5069873;28;20086;-82
2023/05/28 07:38:45;;;;;;;6.78;1.73;;;16.50;99.90;;;;;;5052123;28;20040;-80
2023/05/28 07:41:11;;;;;;;5.47;2.38;;;16.60;99.90;;;;;;5052395;28;20048;-83
2023/05/28 07:43:37;;;;;;;6.28;2.38;;;16.70;99.90;;;;;;5069368;28;20044;-82
2023/05/28 07:46:02;;;;;;;8.07;1.73;;;16.80;99.90;;;;;;5035768;28;20076;-84
2023/05/28 07:48:28;;;;;;;7.30;1.70;;;16.90;99.90;;;;;;5036814;28;20047;-83
2023/05/28 07:50:54;;;;;;;7.78;1.80;;;17.00;99.90;;;;;;5052191;28;20044;-84
2023/05/28 07:53:20;;;;;;;6.72;1.77;;;17.10;99.90;;;;;;5019801;28;20488;-85
2023/05/28 07:55:45;;;;;;;4.78;1.73;;;17.30;99.90;;;;;;5068463;28;20084;-84
2023/05/28 07:58:12;;;;;;;4.80;1.73;;;17.40;99.90;;;;;;5069183;28;20055;-84
2023/05/28 08:00:39;;;;;;;8.50;1.98;;;17.40;99.90;;;;;;5036905;28;20397;-84
2023/05/28 08:03:05;;;;;;;5.10;1.80;;;17.50;99.90;;;;;;5068589;28;20044;-83
2023/05/28 08:05:31;;;;;;;7.95;2.90;;;17.60;99.90;;;;;;5053805;28;20448;-84
2023/05/28 08:07:57;;;;;;;4.60;1.73;;;17.70;99.90;;;;;;5069267;28;20080;-86
2023/05/28 08:10:23;;;;;;;4.90;1.95;;;18.30;99.90;;;;;;5069450;28;20094;-83
2023/05/28 08:12:49;;;;;;;6.03;2.40;;;18.00;99.90;;;;;;5035177;28;20529;-81
2023/05/28 08:15:15;;;;;;;6.05;1.77;;;18.10;99.90;;;;;;5035952;28;20097;-83
2023/05/28 08:17:40;;;;;;;6.78;2.38;;;18.10;99.90;;;;;;5068673;28;20044;-84
2023/05/28 08:20:11;;;;;;;6.20;2.03;;;18.10;99.90;;;;;;5034885;28;20553;-84
2023/05/28 08:22:37;;;;;;;6.00;2.50;;;18.10;99.90;;;;;;5052492;28;20047;-82
2023/05/28 08:25:03;;;;;;;6.82;2.45;;;18.00;99.90;;;;;;5051401;28;20040;-85
2023/05/28 08:27:31;;;;;;;8.95;2.05;;;18.00;99.90;;;;;;5052624;28;20048;-81
2023/05/28 08:29:56;;;;;;;4.82;2.20;;;18.10;99.90;;;;;;5051839;28;20036;-81
2023/05/28 08:32:22;;;;;;;5.20;2.20;;;18.10;99.90;;;;;;5035261;28;20380;-81
2023/05/28 08:34:48;;;;;;;5.38;2.45;;;18.20;99.90;;;;;;5051522;28;20594;-81
2023/05/28 08:37:13;;;;;;;4.65;2.35;;;18.40;99.90;;;;;;5051082;28;20365;-81
2023/05/28 08:39:39;;;;;;;9.05;2.45;;;18.40;99.90;;;;;;5052428;28;20040;-81
2023/05/28 08:42:06;;;;;;;6.53;2.55;;;18.40;99.90;;;;;;5050769;28;20040;-81
2023/05/28 08:44:31;;;;;;;4.20;2.38;;;18.40;99.90;;;;;;5052759;28;20063;-82
2023/05/28 08:46:58;;;;;;;8.25;2.70;;;18.40;99.90;;;;;;5051024;28;20282;-81
2023/05/28 08:49:33;;;;;;;5.00;2.78;;;18.50;99.90;;;;;;5051964;28;20119;-81
2023/05/28 08:52:04;;;;;;;7.18;2.83;;;18.60;99.90;;;;;;5051586;28;20055;-80
2023/05/28 08:54:30;;;;;;;4.57;2.72;;;18.70;99.90;;;;;;5067425;28;20083;-81
2023/05/28 08:56:56;;;;;;;7.57;3.30;;;18.80;99.90;;;;;;5035645;28;20075;-81
2023/05/28 08:59:24;;;;;;;7.43;3.20;;;19.00;99.90;;;;;;5051112;28;20112;-81
2023/05/28 09:01:51;;;;;;;10.27;3.25;;;19.10;99.90;;;;;;5052209;28;20051;-81
2023/05/28 09:04:16;;;;;;;7.47;2.13;;;19.10;99.90;;;;;;5067521;28;20391;-81
2023/05/28 09:06:42;;;;;;;6.20;2.80;;;19.00;99.90;;;;;;5068035;28;20036;-81
2023/05/28 09:09:09;;;;;;;7.00;2.80;;;19.10;99.90;;;;;;5067703;28;20059;-81
2023/05/28 09:11:34;;;;;;;5.05;2.50;;;19.20;99.90;;;;;;5066913;28;20097;-81
2023/05/28 09:14:10;;;;;;;10.05;3.05;;;19.30;99.90;;;;;;5034930;28;20036;-81
2023/05/28 09:16:39;;;;;;;9.15;3.15;;;19.50;99.90;;;;;;5050074;28;20040;-81
2023/05/28 09:19:05;;;;;;;10.73;3.33;;;19.50;99.90;;;;;;5068095;28;20048;-81
2023/05/28 09:21:32;;;;;;;5.20;2.72;;;19.60;99.90;;;;;;5050462;28;20051;-81
2023/05/28 09:24:00;;;;;;;5.70;3.10;;;19.70;99.90;;;;;;5085469;28;20477;-81
2023/05/28 09:26:33;;;;;;;6.45;3.33;;;19.80;99.90;;;;;;5051201;28;20047;-81
2023/05/28 09:28:59;;;;;;;7.00;3.05;;;19.90;99.90;;;;;;5050643;28;20062;-81
2023/05/28 09:31:32;;;;;;;8.57;3.10;;;20.10;99.90;;;;;;5035048;28;20062;-81
2023/05/28 09:34:00;;;;;;;5.50;2.95;;;20.20;99.90;;;;;;5066319;28;20131;-81
2023/05/28 09:36:26;;;;;;;6.85;3.50;;;20.10;99.90;;;;;;5051130;28;20044;-81
2023/05/28 09:38:52;;;;;;;10.38;3.30;;;20.00;99.70;;;;;;5050799;28;20703;-81
2023/05/28 09:41:25;;;;;;;6.25;3.85;;;20.10;99.70;;;;;;5033508;28;20048;-81
2023/05/28 09:44:01;;;;;;;6.82;3.13;;;19.80;99.00;;;;;;5051449;28;20048;-80
2023/05/28 09:46:28;;;;;;;9.68;3.58;;;20.40;97.40;;;;;;5066659;28;20406;-81
2023/05/28 09:48:54;;;;;;;13.75;3.45;;;20.40;98.50;;;;;;5051300;28;20040;-81
2023/05/28 09:51:23;;;;;;;9.20;3.25;;;20.40;97.90;;;;;;5049420;28;20044;-81
2023/05/28 09:53:53;;;;;;;6.70;3.30;;;20.50;97.40;;;;;;5049817;28;20056;-81
2023/05/28 09:56:20;;;;;;;6.32;3.45;;;20.40;96.20;;;;;;5050061;28;20044;-81
2023/05/28 09:58:50;;;;;;;10.70;3.28;;;20.20;96.10;;;;;;5049316;28;20052;-81
2023/05/28 10:01:20;;;;;;;8.43;4.15;;;20.30;96.20;;;;;;5051300;28;20345;-81
2023/05/28 10:03:52;;;;;;;9.35;3.83;;;20.40;96.00;;;;;;5066013;28;20749;-80
2023/05/28 10:06:21;;;;;;;5.97;3.03;;;20.40;94.60;;;;;;5051344;28;20062;-81
2023/05/28 10:08:50;;;;;;;7.93;2.95;;;20.30;94.20;;;;;;5066675;28;20043;-81
2023/05/28 10:11:21;;;;;;;6.75;3.15;;;20.20;94.30;;;;;;5049162;28;20052;-81
2023/05/28 10:13:48;;;;;;;5.93;3.17;;;20.30;95.00;;;;;;5066936;28;20057;-81
2023/05/28 10:16:13;;;;;;;9.02;4.13;;;20.40;94.60;;;;;;5065679;28;20043;-81
2023/05/28 10:18:41;;;;;;;6.45;3.40;;;20.40;92.20;;;;;;5017673;28;20388;-81
2023/05/28 10:21:09;;;;;;;5.63;3.05;;;20.40;90.90;;;;;;5065247;28;20127;-81
2023/05/28 10:23:36;;;;;;;6.47;2.38;;;20.50;90.10;;;;;;5050642;28;20048;-81
2023/05/28 10:26:02;;;;;;;4.88;2.83;;;20.70;90.40;;;;;;5066169;28;20052;-81
2023/05/28 10:28:31;;;;;;;4.30;2.30;;;20.70;89.50;;;;;;5065772;28;20067;-81
2023/05/28 10:31:07;;;;;;;8.77;2.15;;;20.90;88.10;;;;;;5033720;28;20055;-81
2023/05/28 10:33:37;;;;;;;4.07;1.63;;;21.10;86.50;;;;;;5064972;28;20048;-81
2023/05/28 10:36:07;;;;;;;3.15;1.58;;;21.20;87.20;;;;;;5050226;28;20188;-82
2023/05/28 10:38:45;;;;;;;5.15;1.92;;;21.30;85.90;;;;;;5065439;28;20076;-81
2023/05/28 10:41:11;;;;;;;3.00;1.55;;;21.40;82.50;;;;;;5084473;28;20410;-82
2023/05/28 10:43:47;;;;;;;5.25;1.90;;;21.40;84.60;;;;;;5087422;28;20321;-81
2023/05/28 10:46:17;;;;;;;4.72;1.52;;;21.60;85.60;;;;;;5087583;28;20435;-81
2023/05/28 10:49:03;;;;;;;4.03;1.50;;;21.70;84.10;;;;;;5070936;28;20099;-81
2023/05/28 10:51:59;;;;;;;4.25;1.50;;;21.70;81.80;;;;;;5087199;28;20067;-81
2023/05/28 10:54:37;;;;;;;4.88;1.50;;;21.70;80.80;;;;;;5035656;28;20065;-81
2023/05/28 10:57:11;;;;;;;6.68;1.65;;;21.60;82.40;;;;;;5054252;28;20051;-82
2023/05/28 10:59:51;;;;;;;4.68;1.70;;;21.50;84.90;;;;;;5052156;28;20465;-81
2023/05/28 11:02:28;;;;;;;3.78;1.38;;;21.40;85.90;;;;;;5070207;28;20043;-82
2023/05/28 11:05:00;;;;;;;4.93;1.65;;;21.40;85.30;;;;;;5088144;28;20099;-81
2023/05/28 11:07:35;;;;;;;5.57;1.60;;;21.30;86.80;;;;;;5068232;28;20131;-82
2023/05/28 11:10:02;;;;;;;6.05;1.92;;;21.40;87.80;;;;;;5070540;28;20135;-80
2023/05/28 11:12:30;;;;;;;4.72;1.48;;;21.50;88.40;;;;;;5068096;28;20083;-80
2023/05/28 11:14:56;;;;;;;7.10;1.88;;;21.30;89.30;;;;;;5070605;28;20071;-79
2023/05/28 11:17:22;;;;;;;4.53;1.48;;;21.80;89.40;;;;;;5068767;28;20526;-79
2023/05/28 11:19:51;;;;;;;4.25;1.55;;;21.90;89.30;;;;;;5087299;28;20445;-80
2023/05/28 11:22:19;;;;;;;5.78;1.45;;;21.90;89.50;;;;;;5088290;28;20048;-81
2023/05/28 11:25:00;;;;;;;5.28;1.80;;;21.90;90.40;;;;;;5051627;28;20051;-81
2023/05/28 11:27:31;;;;;;;4.20;1.60;;;22.00;90.80;;;;;;5071280;28;20074;-81
2023/05/28 11:29:59;;;;;;;11.60;2.00;;;21.90;91.00;;;;;;5086801;28;20058;-81
2023/05/28 11:32:28;;;;;;;5.30;2.47;;;21.50;91.20;;;;;;5052645;28;20487;-81
2023/05/28 11:34:55;;;;;;;4.95;1.90;;;21.70;91.30;;;;;;5053167;28;20044;-81
2023/05/28 11:37:41;;;;;;;4.80;1.90;;;21.70;91.90;;;;;;5086965;28;20119;-82
2023/05/28 11:40:12;;;;;;;5.72;2.10;;;21.80;91.80;;;;;;5070443;28;20363;-81
2023/05/28 11:42:39;;;;;;;4.80;1.95;;;21.80;92.10;;;;;;5086848;28;20040;-82
2023/05/28 11:45:06;;;;;;;4.32;1.92;;;21.80;92.50;;;;;;5087884;28;20122;-81
2023/05/28 11:47:33;;;;;;;6.10;2.33;;;21.70;92.30;;;;;;5069047;28;20052;-81
2023/05/28 11:50:15;;;;;;;9.23;2.47;;;21.60;92.50;;;;;;5035025;28;20048;-81
2023/05/28 11:52:42;;;;;;;5.68;1.63;;;21.60;92.20;;;;;;5053357;28;20189;-82
2023/05/28 11:55:09;;;;;;;7.40;1.85;;;21.50;93.10;;;;;;5050997;28;20507;-80
2023/05/28 11:57:38;;;;;;;10.60;2.38;;;21.50;93.20;;;;;;5053624;28;20680;-80
2023/05/28 12:00:15;;;;;;;6.53;1.80;;;21.50;93.40;;;;;;5087141;28;20080;-79
2023/05/28 12:02:49;;;;;;;7.90;1.70;;;21.50;93.40;;;;;;5068687;28;20052;-80
2023/05/28 12:05:17;;;;;;;5.82;2.15;;;20.30;93.20;;;;;;5069865;28;20047;-78
2023/05/28 12:07:49;;;;;;;5.43;2.15;;;21.50;93.70;;;;;;5068473;28;20036;-80
2023/05/28 12:10:18;;;;;;;;;;;21.40;93.80;;;;;;5054256;28;20052;-79
2023/05/28 12:12:56;;;;;;;11.88;2.60;;;21.30;93.50;;;;;;5086546;28;19920;-80
2023/05/28 12:15:28;;;;;;;5.82;1.85;;;21.20;94.60;;;;;;5052203;28;20101;-80
2023/05/28 12:17:55;;;;;;;;;;;21.20;94.60;;;;;;5053302;28;20496;-79
2023/05/28 12:20:21;;;;;;;4.10;1.95;;;21.30;94.80;;;;;;5068137;28;19957;-80
2023/05/28 12:22:46;;;;;;;3.70;1.20;;;21.40;95.00;;;;;;5053214;28;20071;-80
2023/05/28 12:25:13;;;;;;;5.43;1.80;;;21.30;94.90;;;;;;5050957;28;20051;-79
2023/05/28 12:27:39;;;;;;;5.50;1.88;;;21.50;95.20;;;;;;5069593;28;20048;-80
2023/05/28 12:30:06;;;;;;;8.13;1.52;;;21.40;95.00;;;;;;5051568;28;20044;-80
2023/05/28 12:32:34;;;;;;;7.35;1.58;;;21.30;95.20;;;;;;5052179;28;20055;-80
2023/05/28 12:35:00;;;;;;;5.88;1.40;;;21.20;95.30;;;;;;5069305;28;20102;-80
2023/05/28 12:37:26;;;;;;;4.65;1.38;;;21.30;95.20;;;;;;5017717;28;20048;-79
2023/05/28 12:39:53;;;;;;;7.72;1.90;;;21.30;95.10;;;;;;5036736;28;20061;-80
2023/05/28 12:42:19;;;;;;;6.78;1.75;;;21.40;95.00;;;;;;5050418;28;20044;-80
2023/05/28 12:44:44;;;;;;;6.78;1.75;;;21.20;94.90;;;;;;5069120;28;20127;-80